Impacts METAR Board INFO
IDs:

KLGA - New York/La Guardia, NY, US

Updated at: 2347 UTC 12 Dec 2017
Potential Impact None Slight Moderate High
Time12/11Z 12/12Z 12/13Z 12/14Z 12/15Z 12/16Z 12/17Z 12/18Z 12/19Z 12/20Z 12/21Z 12/22Z 12/23Z
VIS10 10 10 10 10 10 10 10 10 10 10 10 10
CIG40 80 60 80 33 60 41 38 38 55 100 100 47
CoverOVCOVCOVCOVCOVCOVCOVCOVCOVCOVCOVCOVCOVC
FltCatVFRVFRVFRVFRVFRVFRVFRVFRVFRVFRVFRVFRVFR
WX-----------------RA--------
WDir170160180170170180210270290300290290290
WSpd12 14 11 10 10 12 16 11 11 8 10 17 16
WGst-- 19 16 -- 20 23 23 -- -- -- -- 20 25
Raw hourly METARs
KLGA 121051Z 17012KT 10SM SCT031 BKN040 OVC049 08/03 A2972 RMK AO2 SLP062 T00830028 $
KLGA 121151Z 16014G19KT 10SM FEW025 BKN080 OVC095 09/03 A2967 RMK AO2 SLP047 T00890033 10089 20039 58041 $
KLGA 121251Z 18011G16KT 10SM FEW025 SCT040 OVC060 09/04 A2964 RMK AO2 SLP037 T00940044 $
KLGA 121351Z 17010KT 10SM FEW025 OVC080 10/04 A2961 RMK AO2 SLP025 T01000039 $
KLGA 121451Z 17010G20KT 10SM FEW028 BKN033 OVC065 11/04 A2957 RMK AO2 SLP013 T01060044 58034 $
KLGA 121601Z 18012G23KT 10SM SCT026 SCT035 BKN060 OVC130 11/06 A2952 RMK AO2 T01060056 $
KLGA 121651Z 21016G23KT 10SM SCT024 BKN041 OVC055 11/03 A2948 RMK AO2 SLP983 T01060033 $
KLGA 121751Z 27011KT 10SM FEW025 BKN038 OVC046 09/02 A2945 RMK AO2 SLP973 T00890022 10106 20089 56040 $
KLGA 121851Z 29011KT 10SM -RA SCT028 BKN038 BKN055 OVC150 08/02 A2943 RMK AO2 RAB34 SLP966 P0000 T00830017
KLGA 121951Z 30008KT 10SM FEW026 SCT044 OVC055 07/02 A2943 RMK AO2 RAE32 SLP965 P0000 T00720017
KLGA 122051Z 29010KT 10SM FEW025 SCT060 BKN100 OVC150 07/01 A2941 RMK AO2 SLP960 60000 T00720011 56013
KLGA 122151Z 29017G20KT 10SM FEW030 SCT055 BKN100 OVC150 07/01 A2942 RMK AO2 SLP961 T00720006
KLGA 122251Z 29016G25KT 10SM FEW027 SCT036 OVC047 06/01 A2944 RMK AO2 RAB26E48 CIG 034 R22 SW SLP968 P0000 T00610006